F/V Jeremi Simon — FHAF — position and weather

sailwx.info

Track history (hours):
 
Tides and Currents Weather Stations Pressure Air Temp Water Temp Dewpoint Dewpoint Depression Visibility Wind Speed Wind Dir Waves Ship Positions

F/V Jeremi Simon

Last reported at 2016-May-04 03:06 UTC. Time now 2016-May-05 08:35 UTC.
Position N 46°42' W 001°57'.

Length 20 m.

Type: Other ship. MMSI: 227415000.

Date/timePositionNaut miles runAvg speedWind from/ knotsBaromVisibWave heightAir tempDewpointWater temp
2016-May-04 03:06N 46°42' W 001°57'0 0.1
2016-May-04 02:33N 46°42' W 001°56'0 0.0
2016-May-04 01:33N 46°42' W 001°56'0 0.0
2016-May-04 00:33N 46°42' W 001°57'8 7.6
2016-May-03 23:33N 46°34' W 001°54'6 6.4
2016-May-03 22:33N 46°30' W 001°48'0 0.5
2016-May-03 21:33N 46°30' W 001°47'4 3.6
2016-May-03 20:33N 46°26' W 001°47'2 2.1
2016-May-03 19:33N 46°24' W 001°46'9 8.8
2016-May-03 18:33N 46°16' W 001°43'  
2016-May-01 09:33N 46°09' W 001°50'1010.1
2016-May-01 08:33N 46°19' W 001°52'1010.2
2016-May-01 07:33N 46°29' W 001°54'1010.3
2016-May-01 06:33N 46°39' W 001°57'  
2016-Apr-28 18:33N 46°42' W 001°57'9 8.9
2016-Apr-28 17:33N 46°33' W 001°54'5 5.3
2016-Apr-28 16:33N 46°30' W 001°47'0 0.1
2016-Apr-28 15:33N 46°30' W 001°47'2 1.9
2016-Apr-28 14:33N 46°28' W 001°49'8 8.3
2016-Apr-28 13:33N 46°31' W 001°60'8 8.0
2016-Apr-28 12:32N 46°33' W 002°11'  
2016-Apr-24 06:20N 46°46' W 002°27'8 9.5
2016-Apr-24 05:29N 46°44' W 002°16'9 9.2
2016-Apr-24 04:33N 46°42' W 002°04'  
Track history (hours):
 
Tides and Currents Weather Stations Pressure Air Temp Water Temp Dewpoint Dewpoint Depression Visibility Wind Speed Wind Dir Waves Ship Positions

F/V Jeremi Simon

Last reported at 2016-May-04 03:06 UTC. Time now 2016-May-05 08:35 UTC.
Position N 46°42' W 001°57'.

Length 20 m.

Type: Other ship. MMSI: 227415000.

Date/timePositionNaut miles runAvg speedWind from/ knotsBaromVisibWave heightAir tempDewpointWater temp
2016-May-04 03:06N 46°42' W 001°57'0 0.1
2016-May-04 02:33N 46°42' W 001°56'0 0.0
2016-May-04 01:33N 46°42' W 001°56'0 0.0
2016-May-04 00:33N 46°42' W 001°57'8 7.6
2016-May-03 23:33N 46°34' W 001°54'6 6.4
2016-May-03 22:33N 46°30' W 001°48'0 0.5
2016-May-03 21:33N 46°30' W 001°47'4 3.6
2016-May-03 20:33N 46°26' W 001°47'2 2.1
2016-May-03 19:33N 46°24' W 001°46'9 8.8
2016-May-03 18:33N 46°16' W 001°43'  
2016-May-01 09:33N 46°09' W 001°50'1010.1
2016-May-01 08:33N 46°19' W 001°52'1010.2
2016-May-01 07:33N 46°29' W 001°54'1010.3
2016-May-01 06:33N 46°39' W 001°57'  
2016-Apr-28 18:33N 46°42' W 001°57'9 8.9
2016-Apr-28 17:33N 46°33' W 001°54'5 5.3
2016-Apr-28 16:33N 46°30' W 001°47'0 0.1
2016-Apr-28 15:33N 46°30' W 001°47'2 1.9
2016-Apr-28 14:33N 46°28' W 001°49'8 8.3
2016-Apr-28 13:33N 46°31' W 001°60'8 8.0
2016-Apr-28 12:32N 46°33' W 002°11'  
2016-Apr-24 06:20N 46°46' W 002°27'8 9.5
2016-Apr-24 05:29N 46°44' W 002°16'9 9.2
2016-Apr-24 04:33N 46°42' W 002°04'  

Dump ship's entire track history